Dunlevy, PA (15432)

9:27 PM EST on February 13, 2016 (GMT -0500)
Gibsonton | | Change Station
CLOSE
Current Station
Personal Weather Station
Location: Belle Vernon, PA
Elevation: 823 ft
Nearby Weather Stations
Active Advisory: Wind Chill Advisory

Elev 823 ft 40.13 °N, 79.88 °W | Updated 1 minute ago

Partly Cloudy
Partly Cloudy
3.4 °F
Feels Like 3 °F
N
0.0
Wind Variable Wind from NNE

Today
High -- | Low -- °F
--% Chance of Precip.
Yesterday
High -- | Low -- °F
Precip. -- in
Pressure 30.49 in
Visibility 10.0 miles
Clouds Mostly Cloudy 3600 ft
Overcast 5500 ft
Windchill 3 °F
Dew Point -1 °F
Humidity 80%
Rainfall 0.00 in
Snow Depth Not available.
7:15 AM 5:52 PM
Waxing Crescent, 36% visible
METAR KAGC 140153Z 29005KT 10SM BKN036 OVC055 M13/M17 A3039 RMK AO2 SLP323 T11331172
Pressure 30.49 in
Visibility 10.0 miles
Clouds Mostly Cloudy 3600 ft
Overcast 5500 ft
Windchill 3 °F
Dew Point -1 °F
Humidity 80%
Rainfall 0.00 in
Snow Depth Not available.
7:15 AM 5:52 PM
Waxing Crescent, 36% visible
METAR KAGC 140153Z 29005KT 10SM BKN036 OVC055 M13/M17 A3039 RMK AO2 SLP323 T11331172

10-Day Weather Forecast

Almanac

Astronomy

Feb. 13, 2016 Rise Set
Actual Time
Civil Twilight
Nautical Twilight
Astronomical Twilight
Moon
Length of Visible Light
Length of Day
Tomorrow will be .
, % of the Moon is Illuminated

Today's Extremes

State Highs State Lows

Community

WunderPhotos

Upload Photos

1,892,726 photos uploaded!

WunderBlog® & News

Nearby

Air Quality

  Air Quality AQ Index Pollutant
Not available.

Snow Depth

Station Depth Elevation

Earthquake Activity

City Distance Mag. Time & Date
Minimum magnitude displayed is 2.5.

Coastal Water Temperatures

Place Temperature

Stations

Nearby Weather Stations

Station Location Temp. Windchill Dew Point Humidity Wind Precip. Elev Updated Type
                   

Watches & Warnings

Wind Chill Advisory
Issued: 6:03 PM EST Feb. 13, 2016 – National Weather Service

... Wind Chill Advisory remains in effect until 9 am EST Sunday...

* wind chill... as low as 14 below. Temperature 4 below to 12 above
zero... and west wind 10 to 15 mph.

* Impact... frost bite and hypothermia are likely if precautions
are not taken.

Precautionary/preparedness actions...

A Wind Chill Advisory means that very cold air and strong wind will
combine to generate low wind chill indices. Make sure you dress
appropriately.